Pedro Bay, AK

06:03 PM AKST em 22 de Novembro de 2014 (GMT -0900)
Iliamna | Change Station
CLOSE
Current Station
Aeroporto
Location: Iliamna,
Altitude: 161 ft
Estações Meteorológicas Próximas

Elev 161 ft 59.75 °N, 154.91 °W | Updated 10 minutes ago

Mostly Cloudy
Muito Nublado
33 °F
Aparente 26 °F
N
8
Vento Variável Vento de NNE

Hoje
Máxima -- | Mínima -- °F
--% Possibilidade de Precip.
Ontem
Máxima -- | Mínima -- °F
Precip. -- pol
9:33 AM 4:37 PM
Lua nova, 0% visible
Pressão 29.13 pol
Visibilidade 10.0 milhas
Nuvens Muito Nublado 6500 ft
Sensação Térmica 26 °F
Ponto de Orvalho 28 °F
Humidade 82%
Chuva 0.00 pol
Altura de Neve Não disponível
UV 0 em vez de 12
Pólen Não disponível
Qualidade do Ar Não disponível
Flu Activity Não disponível
METAR PAIL 230253Z 02007KT 10SM BKN065 01/M02 A2912 RMK AO2 SLP863 T00061022 53008

More Conditions Fewer Conditions

Pressão 29.13 pol
Visibilidade 10.0 milhas
Nuvens Muito Nublado 6500 ft
Sensação Térmica 26 °F
Ponto de Orvalho 28 °F
Humidade 82%
Chuva 0.00 pol
Altura de Neve Não disponível
UV 0 em vez de 12
Pólen Não disponível
Qualidade do Ar Não disponível
Flu Activity Não disponível
METAR PAIL 230253Z 02007KT 10SM BKN065 01/M02 A2912 RMK AO2 SLP863 T00061022 53008

More Conditions Fewer Conditions

10-Day Weather Forecast

Almanac

Astronomia

Nov. 22, 2014 Nascer Pôr
Hora atual
Crepúsculo civil
Crepúsculo náutico
Crepúsculo astronómico
Lua
Comprimento da luz visível
Duração do Dia
Tomorrow will be .
, % of the Moon is Illuminated

Extremos de Hoje

situação na parte mais alta situação na parte mais baixa

Community

WunderPhotos

Upload Photos

1,772,982 fotografias inseridas!

WunderBlogs® & News

Nearby

Qualidade do Ar

  Qualidade do Ar Índice da Q.A. Poluente
Not available.

Altura da Neve

Estação altura Altitude

Actividade Sísmisca

Cidade Distância Mag. Hora & Data
Mínima magnitude apresentada é 2.5.

Temperaturas das Águas Costeiras

Local Temperatura

Estações Meteorológicas Próximas